Terminal Aerodrome Forecast
Issued by NWS Memphis, TN

Current Version | Previous Version | Text Only | Print | Product List | Glossary On
Versions: 1 2 3 4 5 6 7 8 9 10 11 12 13 14 15 16
000
FTUS44 KMEG 290737 AAA
TAFMKL
TAF AMD
KMKL 290737Z 2908/3006 18011G17KT P6SM BKN025
     FM291000 17012G18KT P6SM BKN014
     FM291500 18014G23KT P6SM OVC025
     FM291700 16015G24KT P6SM SCT030 BKN050
     FM300100 17011KT P6SM FEW050 BKN150=

USA.gov is the U.S. government's official web portal to all federal, state and local government web resources and services.